Time;durP1;ratioP1;P1;durP2;ratioP2;P2;SDS_P1;SDS_P2;PMS_P1;PMS_P2;Temp;Humidity;BMP_temperature;BMP_pressure;BME280_temperature;BME280_humidity;BME280_pressure;Samples;Min_cycle;Max_cycle;Signal;HPM_P1;HPM_P2
2023/08/28 05:52:04;;;;;;;18.05;3.70;;;21.00;99.90;;;;;;5089704;28;20044;-67
2023/08/28 05:55:08;;;;;;;15.23;3.63;;;21.00;99.90;;;;;;5091838;28;20438;-67
2023/08/28 05:58:12;;;;;;;20.10;4.30;;;21.10;99.90;;;;;;5079856;28;20051;-67
2023/08/28 06:01:16;;;;;;;10.40;4.05;;;21.20;99.90;;;;;;5079322;28;20482;-66
2023/08/28 06:04:20;;;;;;;14.20;3.70;;;21.20;99.90;;;;;;5079817;28;20383;-67
2023/08/28 06:07:24;;;;;;;11.38;4.10;;;21.20;99.90;;;;;;5092397;28;20047;-66
2023/08/28 06:10:29;;;;;;;15.25;3.88;;;21.20;99.90;;;;;;5079113;28;20059;-66
2023/08/28 06:13:33;;;;;;;15.90;3.55;;;21.30;99.90;;;;;;5090926;28;20039;-67
2023/08/28 06:16:37;;;;;;;11.60;3.20;;;21.40;99.90;;;;;;5078767;28;20039;-68
2023/08/28 06:19:41;;;;;;;13.93;3.75;;;21.40;99.90;;;;;;5091751;28;20059;-66
2023/08/28 06:22:48;;;;;;;13.48;3.80;;;21.40;99.90;;;;;;5067224;28;20067;-67
2023/08/28 06:25:52;;;;;;;12.75;2.88;;;21.40;99.90;;;;;;5079303;28;20047;-68
2023/08/28 06:28:56;;;;;;;13.48;3.55;;;21.50;99.90;;;;;;5091561;28;20402;-68
2023/08/28 06:32:00;;;;;;;9.07;3.42;;;22.30;99.90;;;;;;5091175;28;20051;-68
2023/08/28 06:35:04;;;;;;;12.35;2.97;;;23.00;99.90;;;;;;5078847;28;20073;-68
2023/08/28 06:38:09;;;;;;;13.05;3.10;;;24.40;99.90;;;;;;5091209;28;20047;-67
2023/08/28 06:41:12;;;;;;;11.82;2.72;;;25.00;99.90;;;;;;5091233;28;20043;-66
2023/08/28 06:44:16;;;;;;;12.85;2.95;;;25.10;99.90;;;;;;5090889;28;20039;-67
2023/08/28 06:47:21;;;;;;;10.18;2.90;;;25.70;99.90;;;;;;5091374;28;20031;-68
2023/08/28 06:50:24;;;;;;;17.15;2.88;;;26.00;99.90;;;;;;5090763;28;20043;-67
2023/08/28 06:53:29;;;;;;;14.00;2.45;;;25.70;99.90;;;;;;5090090;28;20043;-67
2023/08/28 06:56:33;;;;;;;9.75;2.88;;;25.60;99.90;;;;;;5090726;28;20043;-68
2023/08/28 06:59:37;;;;;;;10.73;2.63;;;26.00;99.90;;;;;;5091034;28;20481;-68
2023/08/28 07:02:41;;;;;;;8.35;2.40;;;26.40;99.90;;;;;;5090293;28;20047;-67
2023/08/28 07:05:45;;;;;;;12.10;3.22;;;26.60;99.90;;;;;;5090607;28;20035;-69
2023/08/28 07:08:49;;;;;;;13.85;3.58;;;27.40;99.90;;;;;;5090463;28;20051;-69
2023/08/28 07:11:53;;;;;;;7.15;2.10;;;28.10;99.90;;;;;;5090497;28;20058;-68
2023/08/28 07:15:18;;;;;;;8.40;2.40;;;28.60;99.90;;;;;;5090504;28;20063;-68
2023/08/28 07:18:22;;;;;;;10.90;2.60;;;28.50;99.90;;;;;;5090708;28;20398;-68
2023/08/28 07:21:26;;;;;;;10.73;2.67;;;28.80;99.90;;;;;;5090257;28;20094;-69
2023/08/28 07:24:30;;;;;;;6.75;2.50;;;28.90;99.90;;;;;;5090708;28;20043;-68
2023/08/28 07:27:34;;;;;;;9.50;2.78;;;29.50;99.00;;;;;;5090730;28;20047;-67
2023/08/28 07:30:39;;;;;;;8.57;2.17;;;29.30;99.30;;;;;;5090462;28;20062;-68
2023/08/28 07:33:43;;;;;;;6.20;2.00;;;29.30;98.90;;;;;;5090297;28;20497;-69
2023/08/28 07:36:47;;;;;;;10.55;2.50;;;29.20;98.70;;;;;;5090744;28;20039;-70
2023/08/28 07:39:53;;;;;;;8.35;2.30;;;28.20;99.70;;;;;;5090407;28;20047;-68
2023/08/28 07:42:56;;;;;;;10.90;2.60;;;27.60;99.90;;;;;;5077521;28;20043;-67
2023/08/28 07:46:00;;;;;;;8.63;2.33;;;26.50;99.90;;;;;;5090441;28;20051;-68
2023/08/28 07:49:04;;;;;;;10.10;2.17;;;27.60;99.90;;;;;;5090573;28;20047;-68
2023/08/28 07:52:09;;;;;;;7.50;2.53;;;28.60;99.00;;;;;;5090279;28;20051;-69
2023/08/28 07:55:13;;;;;;;15.60;3.25;;;29.80;97.90;;;;;;5090665;28;20058;-70
2023/08/28 07:58:18;;;;;;;10.80;2.22;;;30.60;96.60;;;;;;5090964;28;20490;-69
2023/08/28 08:01:23;;;;;;;7.72;2.70;;;30.90;95.90;;;;;;5089629;28;20055;-69
2023/08/28 08:04:28;;;;;;;9.88;2.50;;;30.60;95.70;;;;;;5093860;28;20051;-70
2023/08/28 08:07:32;;;;;;;8.93;2.50;;;28.90;96.80;;;;;;5094505;28;20075;-69
2023/08/28 08:10:36;;;;;;;11.48;2.92;;;28.40;98.70;;;;;;5094021;28;20063;-69
2023/08/28 08:13:40;;;;;;;12.23;2.97;;;27.90;99.70;;;;;;5093698;28;20039;-68
2023/08/28 08:16:44;;;;;;;12.85;3.13;;;28.00;99.90;;;;;;5094331;28;20051;-68
2023/08/28 08:19:48;;;;;;;9.57;2.13;;;29.90;97.80;;;;;;5093624;28;20387;-68
2023/08/28 08:22:52;;;;;;;12.13;2.60;;;31.20;96.10;;;;;;5093718;28;20043;-69
2023/08/28 08:25:56;;;;;;;8.38;2.30;;;29.60;95.90;;;;;;5093735;28;20047;-69
2023/08/28 08:29:00;;;;;;;11.73;2.78;;;28.70;98.00;;;;;;5094022;28;20043;-68
2023/08/28 08:32:05;;;;;;;10.25;2.67;;;27.40;99.80;;;;;;5093260;28;20032;-70
2023/08/28 08:35:11;;;;;;;5.68;2.53;;;27.00;99.90;;;;;;5093677;28;20047;-71
2023/08/28 08:38:15;;;;;;;10.98;2.63;;;26.40;99.90;;;;;;5093657;28;20288;-70
2023/08/28 08:41:19;;;;;;;6.53;1.88;;;27.10;99.90;;;;;;5093109;28;20039;-70
2023/08/28 08:44:23;;;;;;;5.68;2.15;;;29.20;99.40;;;;;;5093366;28;20039;-72
2023/08/28 08:47:28;;;;;;;7.68;2.40;;;28.20;99.90;;;;;;5093545;28;20035;-70
2023/08/28 08:50:35;;;;;;;10.68;3.08;;;27.60;99.90;;;;;;5092614;28;20043;-71
2023/08/28 08:53:53;;;;;;;16.45;3.15;;;25.80;99.90;;;;;;5081051;28;20063;-70
2023/08/28 08:57:04;;;;;;;12.85;2.67;;;25.20;99.90;;;;;;5091760;28;20506;-68
2023/08/28 09:00:17;;;;;;;19.60;2.78;;;24.80;99.90;;;;;;5080607;28;20043;-69
2023/08/28 09:03:21;;;;;;;10.75;2.95;;;24.10;99.90;;;;;;5092697;28;20057;-68
2023/08/28 09:06:39;;;;;;;;;;;;;;;;;;;;;
2023/08/28 09:15:47;;;;;;;12.95;3.83;;;21.10;99.90;;;;;;5014120;28;20037;-65
2023/08/28 09:28:19;;;;;;;13.68;3.40;;;20.70;99.90;;;;;;5019562;28;20045;-66
2023/08/28 09:31:42;;;;;;;8.10;2.90;;;20.90;99.90;;;;;;5092261;28;20604;-67
2023/08/28 09:34:47;;;;;;;7.72;2.60;;;21.60;99.90;;;;;;5092700;28;20505;-66
2023/08/28 09:38:28;;;;;;;7.82;2.17;;;22.80;99.90;;;;;;5092972;28;20051;-66
2023/08/28 09:41:48;;;;;;;10.25;2.05;;;26.80;99.90;;;;;;5092445;28;20043;-66
2023/08/28 09:45:30;;;;;;;4.65;1.83;;;29.40;99.90;;;;;;5092174;28;20383;-67
2023/08/28 09:49:13;;;;;;;4.63;1.63;;;29.00;99.90;;;;;;5092546;28;20055;-69
2023/08/28 09:52:25;;;;;;;5.32;1.85;;;26.00;99.90;;;;;;5091505;28;20391;-68
2023/08/28 09:55:29;;;;;;;6.95;1.58;;;25.50;99.90;;;;;;5091939;28;20411;-69
2023/08/28 09:58:35;;;;;;;5.82;1.65;;;25.70;99.90;;;;;;5091890;28;20039;-69
2023/08/28 10:01:58;;;;;;;3.80;1.40;;;26.40;99.90;;;;;;5091629;28;20050;-69
2023/08/28 10:05:06;;;;;;;8.10;2.05;;;26.20;99.90;;;;;;5091867;28;20395;-70
2023/08/28 10:08:12;;;;;;;6.40;2.30;;;25.70;99.90;;;;;;5092077;28;20047;-69
2023/08/28 10:11:59;;;;;;;6.95;2.15;;;25.40;99.90;;;;;;5091242;28;20062;-69
2023/08/28 10:15:04;;;;;;;8.48;2.03;;;25.10;99.90;;;;;;5092034;28;20387;-68
2023/08/28 10:21:39;;;;;;;6.93;2.00;;;25.00;99.90;;;;;;5091475;28;20047;-69
2023/08/28 10:24:45;;;;;;;7.72;2.08;;;24.90;99.90;;;;;;5079240;28;20406;-68
2023/08/28 10:37:19;;;;;;;4.55;2.08;;;26.00;99.90;;;;;;5091713;28;20043;-70
2023/08/28 10:54:58;;;;;;;6.88;2.70;;;24.50;99.90;;;;;;5092528;28;20050;-69
2023/08/28 10:58:02;;;;;;;6.97;1.98;;;24.30;99.90;;;;;;5091218;28;20047;-69
2023/08/28 11:01:14;;;;;;;9.80;2.50;;;24.20;99.90;;;;;;5090680;28;20047;-70
2023/08/28 11:14:04;;;;;;;9.60;2.60;;;21.10;99.90;;;;;;5091282;28;20418;-66
2023/08/28 11:17:10;;;;;;;7.80;2.22;;;20.70;99.90;;;;;;5090611;28;20035;-66
2023/08/28 11:20:19;;;;;;;10.75;2.75;;;20.80;99.90;;;;;;5090994;28;20042;-66
2023/08/28 11:23:34;;;;;;;9.45;2.42;;;21.10;99.90;;;;;;5090071;28;20035;-66
2023/08/28 11:26:43;;;;;;;6.80;2.33;;;21.40;99.90;;;;;;5090385;28;20427;-65
2023/08/28 11:29:47;;;;;;;7.03;2.40;;;21.80;99.90;;;;;;5090792;28;20047;-66
2023/08/28 11:32:53;;;;;;;9.65;2.95;;;22.20;99.90;;;;;;5090213;28;20043;-66
2023/08/28 11:36:01;;;;;;;7.70;2.55;;;22.60;99.90;;;;;;5090452;28;20390;-68
2023/08/28 11:39:05;;;;;;;9.02;2.22;;;22.50;99.90;;;;;;5090334;28;20438;-68
2023/08/28 11:42:12;;;;;;;13.57;2.60;;;22.90;99.90;;;;;;5090116;28;20051;-68
2023/08/28 11:45:21;;;;;;;6.30;1.98;;;23.60;99.90;;;;;;5090525;28;20039;-68
2023/08/28 11:48:25;;;;;;;13.10;2.50;;;25.40;99.90;;;;;;5090290;28;20497;-68
2023/08/28 11:51:29;;;;;;;6.70;2.25;;;27.60;99.90;;;;;;5089796;28;20055;-69
2023/08/28 11:54:34;;;;;;;9.25;1.83;;;28.60;99.90;;;;;;5090220;28;20043;-68
2023/08/28 11:57:39;;;;;;;9.43;2.28;;;29.30;99.90;;;;;;5084173;28;20482;-69
2023/08/28 12:00:43;;;;;;;10.90;2.50;;;29.40;99.50;;;;;;5086288;28;20063;-68
2023/08/28 12:03:48;;;;;;;17.48;2.55;;;29.90;97.80;;;;;;5080959;28;20660;-67
2023/08/28 12:06:53;;;;;;;9.52;2.38;;;27.60;99.30;;;;;;5084466;28;20059;-68
2023/08/28 12:09:59;;;;;;;10.85;2.20;;;29.00;98.90;;;;;;5085190;28;20064;-68
2023/08/28 12:13:03;;;;;;;9.85;2.78;;;27.70;98.50;;;;;;5090701;28;20040;-67
2023/08/28 12:16:19;;;;;;;10.75;2.25;;;27.50;97.50;;;;;;5088519;28;20386;-68
2023/08/28 12:19:24;;;;;;;7.32;2.60;;;28.30;98.60;;;;;;5084385;28;20039;-68
2023/08/28 12:22:28;;;;;;;7.95;2.40;;;29.50;97.60;;;;;;5079576;28;20042;-71
2023/08/28 12:25:31;;;;;;;9.82;2.30;;;29.90;93.20;;;;;;5085195;28;20047;-69
2023/08/28 12:28:35;;;;;;;7.00;2.20;;;29.60;94.10;;;;;;5075669;28;20040;-69
2023/08/28 12:31:40;;;;;;;12.10;2.40;;;29.10;92.70;;;;;;5083187;28;20047;-68
2023/08/28 12:34:45;;;;;;;7.88;1.83;;;28.20;94.10;;;;;;5086433;28;20054;-68
2023/08/28 12:37:53;;;;;;;8.85;2.35;;;28.80;92.70;;;;;;5075150;28;20043;-69
2023/08/28 12:40:57;;;;;;;9.23;2.00;;;27.70;93.70;;;;;;5079227;28;20059;-68
2023/08/28 12:58:30;;;;;;;15.48;2.78;;;29.30;90.20;;;;;;5078922;28;20046;-69
2023/08/28 13:01:34;;;;;;;13.23;3.05;;;27.70;90.90;;;;;;5079920;28;20482;-70
2023/08/28 13:04:42;;;;;;;13.02;2.05;;;27.70;90.80;;;;;;5089279;28;20313;-68
2023/08/28 13:07:47;;;;;;;15.75;2.83;;;28.50;90.90;;;;;;5082917;28;20383;-69
2023/08/28 13:10:51;;;;;;;12.13;2.20;;;28.60;90.00;;;;;;5085118;28;20493;-69
2023/08/28 13:13:55;;;;;;;13.07;2.63;;;29.00;89.00;;;;;;5087710;28;20379;-70
2023/08/28 13:17:00;;;;;;;11.73;2.78;;;27.70;90.80;;;;;;5089478;28;20035;-67
2023/08/28 13:20:04;;;;;;;16.92;2.92;;;27.10;91.90;;;;;;5077306;28;20044;-68
2023/08/28 13:23:09;;;;;;;10.02;2.40;;;26.10;93.30;;;;;;5084096;28;20043;-70
2023/08/28 13:26:13;;;;;;;20.27;3.63;;;26.50;93.80;;;;;;5087210;28;20391;-72
2023/08/28 13:29:17;;;;;;;14.38;2.60;;;26.90;92.30;;;;;;5083705;28;20039;-70
2023/08/28 13:32:22;;;;;;;13.43;3.17;;;27.40;92.20;;;;;;5078768;28;20040;-68
2023/08/28 13:35:27;;;;;;;16.52;2.85;;;26.20;92.60;;;;;;5085801;28;20047;-66
2023/08/28 13:52:11;;;;;;;10.95;2.47;;;26.20;91.00;;;;;;5097551;28;20051;-68
2023/08/28 13:55:15;;;;;;;13.80;2.60;;;27.40;91.30;;;;;;5088091;28;20039;-67
2023/08/28 13:58:21;;;;;;;10.63;2.53;;;27.20;91.60;;;;;;5081612;28;20040;-68
2023/08/28 14:11:09;;;;;;;17.52;3.08;;;26.60;90.90;;;;;;5091539;28;20498;-67
2023/08/28 14:14:14;;;;;;;9.35;2.50;;;25.50;92.00;;;;;;5077891;28;20039;-68
2023/08/28 14:17:20;;;;;;;12.35;3.42;;;24.80;93.40;;;;;;5093469;28;20030;-69
2023/08/28 14:20:25;;;;;;;17.98;3.67;;;24.80;93.50;;;;;;5072721;28;20047;-70
2023/08/28 14:23:30;;;;;;;23.73;3.22;;;24.40;94.60;;;;;;5082102;28;20042;-68
2023/08/28 14:26:34;;;;;;;14.48;3.05;;;24.30;95.20;;;;;;5080789;28;20039;-68
2023/08/28 14:29:38;;;;;;;20.00;2.72;;;24.40;93.50;;;;;;5085810;28;20070;-67
2023/08/28 14:32:42;;;;;;;13.73;2.38;;;24.10;94.20;;;;;;5090917;28;20035;-69
2023/08/28 14:35:46;;;;;;;13.32;2.40;;;24.20;93.90;;;;;;5091743;28;20043;-69
2023/08/28 14:38:51;;;;;;;14.02;3.00;;;24.00;92.60;;;;;;5091012;28;20047;-71
2023/08/28 14:41:55;;;;;;;17.52;2.58;;;23.60;93.90;;;;;;5088248;28;20043;-66
2023/08/28 14:44:59;;;;;;;23.45;3.63;;;23.30;94.60;;;;;;5092133;28;20620;-67
2023/08/28 14:48:04;;;;;;;19.55;3.25;;;23.30;94.90;;;;;;5089203;28;20039;-69
2023/08/28 14:51:08;;;;;;;20.92;3.05;;;22.90;95.10;;;;;;5087653;28;20038;-68
2023/08/28 14:54:12;;;;;;;14.55;2.83;;;23.10;95.60;;;;;;5087097;28;20051;-67
2023/08/28 14:57:16;;;;;;;12.40;3.00;;;23.40;95.30;;;;;;5100005;28;20386;-67
2023/08/28 15:00:21;;;;;;;12.75;2.83;;;23.60;95.70;;;;;;5090950;28;20047;-68
2023/08/28 15:03:26;;;;;;;15.18;3.30;;;23.60;95.90;;;;;;5088929;28;20035;-67
2023/08/28 15:06:30;;;;;;;16.75;3.60;;;23.10;96.40;;;;;;5083313;28;20039;-68
2023/08/28 15:09:35;;;;;;;21.02;3.33;;;22.70;97.00;;;;;;5077289;28;20064;-69
2023/08/28 15:12:39;;;;;;;16.77;3.80;;;22.70;97.40;;;;;;5080084;28;20766;-67
2023/08/28 15:15:48;;;;;;;18.70;3.28;;;22.80;97.70;;;;;;5088487;28;20043;-67
2023/08/28 15:18:53;;;;;;;21.50;3.70;;;22.90;98.20;;;;;;5087538;28;20046;-68
2023/08/28 15:21:57;;;;;;;16.30;3.00;;;23.30;97.50;;;;;;5095675;28;20378;-67
2023/08/28 15:25:02;;;;;;;17.42;3.72;;;23.20;97.80;;;;;;5080908;28;20055;-65
2023/08/28 15:28:08;;;;;;;13.82;2.47;;;22.90;97.70;;;;;;5091085;28;20106;-67
2023/08/28 15:31:12;;;;;;;17.48;2.72;;;22.90;97.60;;;;;;5085310;28;20047;-69
2023/08/28 15:34:17;;;;;;;12.40;2.25;;;23.20;96.60;;;;;;5090046;28;20053;-68
2023/08/28 15:37:21;;;;;;;13.77;2.63;;;23.10;96.80;;;;;;5098648;28;20043;-69
2023/08/28 15:40:26;;;;;;;11.27;2.90;;;22.60;97.40;;;;;;5093153;28;20027;-67
2023/08/28 15:43:33;;;;;;;15.13;2.55;;;22.70;98.10;;;;;;5070966;28;20043;-68
2023/08/28 15:46:38;;;;;;;13.40;3.08;;;22.50;98.00;;;;;;5082941;28;20043;-69
2023/08/28 15:49:42;;;;;;;15.68;2.80;;;22.50;98.70;;;;;;5085484;28;20482;-69
2023/08/28 15:52:46;;;;;;;13.73;2.70;;;22.60;99.20;;;;;;5089759;28;20050;-70
2023/08/28 15:55:54;;;;;;;16.60;2.95;;;22.60;99.00;;;;;;5082644;28;20708;-69
2023/08/28 15:58:58;;;;;;;16.23;2.90;;;22.50;99.20;;;;;;5086567;28;20046;-68
2023/08/28 16:02:03;;;;;;;17.23;2.60;;;22.50;99.60;;;;;;5086964;28;20050;-65
2023/08/28 16:05:08;;;;;;;17.85;2.95;;;22.50;99.30;;;;;;5081823;28;20051;-66
2023/08/28 16:08:12;;;;;;;13.63;2.85;;;22.30;99.00;;;;;;5080798;28;20047;-64
2023/08/28 16:11:16;;;;;;;19.00;3.67;;;22.10;99.80;;;;;;5096373;28;20055;-65
2023/08/28 16:14:20;;;;;;;17.20;3.03;;;22.10;99.90;;;;;;5089840;28;20399;-66
2023/08/28 16:17:25;;;;;;;16.20;3.30;;;22.00;99.70;;;;;;5088553;28;20403;-65
2023/08/28 16:20:30;;;;;;;16.13;2.78;;;21.80;99.80;;;;;;5081193;28;20043;-67
2023/08/28 16:23:35;;;;;;;11.27;2.83;;;21.60;99.90;;;;;;5094610;28;20031;-65
2023/08/28 16:26:40;;;;;;;18.58;3.40;;;21.50;99.90;;;;;;5099388;28;20058;-66
2023/08/28 16:29:44;;;;;;;15.77;3.30;;;21.30;99.90;;;;;;5099510;28;20580;-65
2023/08/28 16:32:48;;;;;;;19.30;3.00;;;21.30;99.90;;;;;;5086011;28;20043;-65
2023/08/28 16:35:52;;;;;;;16.17;3.30;;;21.10;99.90;;;;;;5093801;28;20042;-65
2023/08/28 16:38:56;;;;;;;25.88;4.10;;;21.10;99.90;;;;;;5090894;28;20039;-64
2023/08/28 16:42:01;;;;;;;16.50;3.17;;;21.30;99.90;;;;;;5089738;28;20533;-65
2023/08/28 16:45:06;;;;;;;14.68;2.90;;;21.30;99.90;;;;;;5090016;28;20414;-65
2023/08/28 16:48:10;;;;;;;16.95;3.13;;;21.40;99.90;;;;;;5112090;28;20042;-66
2023/08/28 16:51:14;;;;;;;20.40;3.38;;;21.30;99.90;;;;;;5093977;28;20102;-65
2023/08/28 16:54:40;;;;;;;21.30;4.05;;;21.30;99.90;;;;;;5084739;28;20036;-65
2023/08/28 16:57:44;;;;;;;24.42;3.42;;;21.40;99.90;;;;;;5091261;28;20390;-64
2023/08/28 17:00:48;;;;;;;12.10;2.83;;;21.30;99.90;;;;;;5086635;28;20077;-65
2023/08/28 17:03:52;;;;;;;28.90;4.90;;;21.30;99.90;;;;;;5088669;28;20063;-66
2023/08/28 17:06:56;;;;;;;17.40;3.22;;;21.30;99.90;;;;;;5094640;28;20050;-64
2023/08/28 17:10:03;;;;;;;19.23;3.63;;;21.20;99.90;;;;;;5072511;28;20684;-66
2023/08/28 17:13:07;;;;;;;25.80;3.72;;;21.10;99.90;;;;;;5072217;28;20262;-66
2023/08/28 17:16:12;;;;;;;14.15;3.17;;;21.00;99.90;;;;;;5073220;28;20372;-65
2023/08/28 17:19:17;;;;;;;21.33;3.45;;;21.00;99.90;;;;;;5072901;28;20048;-64
2023/08/28 17:22:20;;;;;;;19.58;4.03;;;20.80;99.90;;;;;;5072748;28;20039;-65
2023/08/28 17:25:25;;;;;;;19.10;4.03;;;20.50;99.90;;;;;;5092667;28;20047;-66
2023/08/28 17:28:29;;;;;;;17.63;3.10;;;20.30;99.90;;;;;;5093082;28;20051;-67
2023/08/28 17:31:33;;;;;;;20.90;4.10;;;20.20;99.90;;;;;;5091688;28;20039;-65
2023/08/28 17:34:37;;;;;;;20.23;3.20;;;20.30;99.90;;;;;;5091392;28;20043;-66
2023/08/28 17:37:41;;;;;;;18.90;3.35;;;20.20;99.90;;;;;;5091050;28;20390;-65
2023/08/28 17:40:47;;;;;;;20.15;3.55;;;20.20;99.90;;;;;;5093340;28;20050;-64
2023/08/28 17:43:51;;;;;;;27.83;4.05;;;20.10;99.90;;;;;;5093377;28;20486;-66
2023/08/28 17:46:56;;;;;;;20.10;3.63;;;20.10;99.90;;;;;;5092467;28;20043;-66
2023/08/28 17:50:00;;;;;;;20.48;3.45;;;20.10;99.90;;;;;;5092085;28;20051;-65
2023/08/28 17:53:04;;;;;;;13.30;2.75;;;20.10;99.90;;;;;;5091244;28;20043;-65
2023/08/28 17:56:09;;;;;;;22.67;3.67;;;20.10;99.90;;;;;;5092011;28;20110;-65
2023/08/28 17:59:14;;;;;;;14.77;2.85;;;20.00;99.90;;;;;;5092013;28;20039;-67
2023/08/28 18:02:18;;;;;;;16.95;3.45;;;20.00;99.90;;;;;;5091486;28;20055;-65
2023/08/28 18:05:22;;;;;;;14.93;3.45;;;19.90;99.90;;;;;;5092001;28;20394;-66
2023/08/28 18:08:27;;;;;;;12.77;2.45;;;19.90;99.90;;;;;;5091890;28;20051;-65
2023/08/28 18:11:31;;;;;;;18.77;3.30;;;19.80;99.90;;;;;;5091301;28;20043;-65
2023/08/28 18:14:35;;;;;;;19.05;3.47;;;19.80;99.90;;;;;;5091998;28;20070;-65
2023/08/28 18:17:40;;;;;;;26.88;4.28;;;19.70;99.90;;;;;;5090962;28;20039;-66
2023/08/28 18:20:45;;;;;;;14.93;3.45;;;19.60;99.90;;;;;;5091878;28;20043;-66
2023/08/28 18:23:51;;;;;;;22.35;3.75;;;19.50;99.90;;;;;;5091600;28;20532;-66
2023/08/28 18:26:55;;;;;;;22.00;4.22;;;19.50;99.90;;;;;;5091616;28;20505;-65
2023/08/28 18:30:03;;;;;;;18.63;3.20;;;19.50;99.90;;;;;;5091312;28;20039;-65
2023/08/28 18:33:15;;;;;;;15.63;2.30;;;19.40;99.90;;;;;;5090860;28;20059;-65
2023/08/28 18:36:19;;;;;;;17.45;3.22;;;19.30;99.90;;;;;;5091248;28;20043;-65
2023/08/28 18:39:25;;;;;;;23.05;3.35;;;19.30;99.90;;;;;;5091782;28;20043;-66
2023/08/28 18:42:32;;;;;;;22.27;3.50;;;19.20;99.90;;;;;;5090916;28;20058;-66
2023/08/28 18:45:37;;;;;;;22.65;3.55;;;18.90;99.90;;;;;;5091744;28;20498;-65
2023/08/28 18:48:48;;;;;;;20.42;3.80;;;18.10;99.90;;;;;;5090654;28;20043;-65
2023/08/28 18:52:02;;;;;;;23.02;4.32;;;17.40;99.90;;;;;;5090403;28;20517;-66
2023/08/28 18:55:17;;;;;;;21.83;4.10;;;17.00;99.90;;;;;;5091222;28;20047;-67
2023/08/28 18:58:26;;;;;;;30.05;5.35;;;16.70;99.90;;;;;;5091308;28;20036;-66
2023/08/28 19:01:36;;;;;;;29.40;4.45;;;16.60;99.90;;;;;;5090406;28;20067;-66
2023/08/28 19:04:41;;;;;;;21.30;4.88;;;16.50;99.90;;;;;;5090980;28;20490;-66
2023/08/28 19:07:45;;;;;;;25.45;4.00;;;16.50;99.90;;;;;;5090806;28;20062;-66
2023/08/28 19:10:49;;;;;;;27.27;4.65;;;16.40;99.90;;;;;;5066640;28;20039;-66
2023/08/28 19:18:53;;;;;;;26.13;4.78;;;16.20;99.90;;;;;;5095122;28;20035;-65
2023/08/28 19:22:00;;;;;;;22.70;4.05;;;16.10;99.90;;;;;;5089684;28;20039;-64
2023/08/28 19:25:08;;;;;;;26.40;3.92;;;16.00;99.90;;;;;;5090680;28;20051;-66
2023/08/28 19:28:15;;;;;;;26.80;3.95;;;16.00;99.90;;;;;;5090347;28;20035;-65
2023/08/28 19:31:19;;;;;;;23.85;3.97;;;16.10;99.90;;;;;;5077407;28;20058;-65
2023/08/28 19:34:30;;;;;;;20.52;3.33;;;16.00;99.90;;;;;;5078325;28;20039;-64
2023/08/28 19:37:48;;;;;;;17.67;3.15;;;16.10;99.90;;;;;;5090192;28;20505;-64
2023/08/28 19:40:53;;;;;;;32.22;6.22;;;16.20;99.90;;;;;;5077478;28;20035;-66
2023/08/28 19:44:02;;;;;;;26.42;4.47;;;16.10;99.90;;;;;;5066985;28;20427;-64
2023/08/28 19:47:07;;;;;;;35.40;5.45;;;16.10;99.90;;;;;;5090339;28;20506;-65
2023/08/28 19:50:32;;;;;;;24.40;4.45;;;16.10;99.90;;;;;;5090026;28;20102;-64
2023/08/28 19:53:43;;;;;;;28.00;6.07;;;16.10;99.90;;;;;;5079311;28;20514;-65
2023/08/28 19:56:55;;;;;;;35.00;4.80;;;16.00;99.90;;;;;;5090394;28;20035;-66
2023/08/28 20:00:12;;;;;;;37.55;4.68;;;16.00;99.90;;;;;;5093328;28;20044;-65
2023/08/28 20:03:16;;;;;;;29.42;4.47;;;16.00;99.90;;;;;;5094000;28;20039;-65
2023/08/28 20:06:25;;;;;;;25.90;5.03;;;16.10;99.90;;;;;;5094288;28;20509;-65
2023/08/28 20:09:31;;;;;;;26.30;4.00;;;16.00;99.90;;;;;;5094528;28;20047;-65
2023/08/28 20:12:35;;;;;;;36.90;5.55;;;16.10;99.90;;;;;;5093646;28;20047;-65
2023/08/28 20:15:47;;;;;;;31.92;5.13;;;16.10;99.90;;;;;;5094539;28;20047;-67
2023/08/28 20:18:52;;;;;;;27.00;4.28;;;16.10;99.90;;;;;;5094373;28;20043;-66
2023/08/28 20:21:57;;;;;;;31.45;4.90;;;16.10;99.90;;;;;;5094018;28;20399;-65
2023/08/28 20:25:03;;;;;;;29.77;4.75;;;16.10;99.90;;;;;;5094487;28;20047;-65
2023/08/28 20:28:07;;;;;;;27.55;4.45;;;16.10;99.90;;;;;;5094430;28;20047;-65
2023/08/28 20:31:11;;;;;;;28.35;4.50;;;16.10;99.90;;;;;;5093891;28;20066;-65
2023/08/28 20:34:16;;;;;;;28.20;4.53;;;16.20;99.90;;;;;;5093915;28;20036;-66
2023/08/28 20:37:20;;;;;;;23.90;4.93;;;16.30;99.90;;;;;;5093921;28;20597;-67
2023/08/28 20:40:24;;;;;;;28.50;4.25;;;16.40;99.90;;;;;;5093992;28;20039;-65
2023/08/28 20:43:28;;;;;;;33.13;6.55;;;16.40;99.90;;;;;;5081026;28;20051;-67
2023/08/28 20:46:32;;;;;;;29.95;4.68;;;16.40;99.90;;;;;;5081166;28;20047;-66
2023/08/28 20:49:36;;;;;;;28.33;4.38;;;16.40;99.90;;;;;;5080848;28;20038;-65
2023/08/28 20:52:41;;;;;;;31.52;5.20;;;16.30;99.90;;;;;;5092909;28;20063;-66
2023/08/28 20:55:45;;;;;;;36.58;5.25;;;16.20;99.90;;;;;;5093263;28;20407;-67
2023/08/28 20:58:49;;;;;;;31.42;4.63;;;16.20;99.90;;;;;;5081069;28;20047;-66
2023/08/28 21:01:54;;;;;;;37.05;5.75;;;16.10;99.90;;;;;;5092970;28;20043;-65
2023/08/28 21:04:58;;;;;;;31.35;6.03;;;16.00;99.90;;;;;;5093381;28;20047;-65
2023/08/28 21:08:02;;;;;;;28.73;5.28;;;15.90;99.90;;;;;;5093449;28;20548;-66
2023/08/28 21:11:06;;;;;;;31.45;5.75;;;15.90;99.90;;;;;;5092053;28;20039;-66
2023/08/28 21:14:11;;;;;;;25.52;4.93;;;15.90;99.90;;;;;;5093251;28;20043;-66
2023/08/28 21:17:15;;;;;;;28.80;4.63;;;15.80;99.90;;;;;;5092772;28;20398;-65
2023/08/28 21:20:20;;;;;;;40.50;5.47;;;15.80;99.90;;;;;;5092843;28;20047;-65
2023/08/28 21:23:25;;;;;;;29.40;5.00;;;15.70;99.90;;;;;;5092538;28;20047;-66
2023/08/28 21:26:30;;;;;;;31.85;5.50;;;15.70;99.90;;;;;;5093121;28;20043;-65
2023/08/28 21:29:34;;;;;;;32.58;4.88;;;15.70;99.90;;;;;;5080546;28;20039;-65
2023/08/28 21:32:40;;;;;;;34.53;6.03;;;15.70;99.90;;;;;;5091824;28;20055;-65
2023/08/28 21:35:44;;;;;;;29.95;4.93;;;15.70;99.90;;;;;;5092664;28;20079;-65
2023/08/28 21:38:48;;;;;;;40.70;4.88;;;15.70;99.90;;;;;;5092979;28;20047;-65
2023/08/28 21:41:52;;;;;;;30.27;4.65;;;15.70;99.90;;;;;;5092220;28;20058;-65
2023/08/28 21:44:56;;;;;;;29.88;5.10;;;15.70;99.90;;;;;;5092818;28;20051;-65
2023/08/28 21:48:00;;;;;;;31.65;5.75;;;15.70;99.90;;;;;;5091907;28;20035;-65
2023/08/28 21:51:23;;;;;;;22.67;4.57;;;15.60;99.90;;;;;;5091865;28;20039;-66
2023/08/28 21:54:46;;;;;;;29.85;4.70;;;15.60;99.90;;;;;;5092552;28;20047;-64
2023/08/28 21:58:10;;;;;;;32.65;5.10;;;15.70;99.90;;;;;;5092088;28;20051;-64
2023/08/28 22:01:33;;;;;;;29.50;5.57;;;15.70;99.90;;;;;;5090081;28;20047;-64
2023/08/28 22:04:55;;;;;;;22.55;4.20;;;15.70;99.90;;;;;;5092432;28;20059;-65
2023/08/28 22:08:17;;;;;;;25.63;3.88;;;15.70;99.90;;;;;;5092169;28;20047;-65
2023/08/28 22:11:39;;;;;;;30.52;4.50;;;15.70;99.90;;;;;;5070236;28;20043;-64
2023/08/28 22:14:51;;;;;;;25.58;5.13;;;15.70;99.90;;;;;;5079161;28;20078;-65
2023/08/28 22:17:55;;;;;;;37.53;5.55;;;15.70;99.90;;;;;;5079127;28;20040;-65
2023/08/28 22:20:59;;;;;;;36.00;6.28;;;15.80;99.90;;;;;;5091951;28;20050;-65
2023/08/28 22:24:04;;;;;;;32.35;5.43;;;15.70;99.90;;;;;;5091868;28;20043;-65
2023/08/28 22:27:08;;;;;;;44.63;6.97;;;15.70;99.90;;;;;;5091850;28;20379;-65
2023/08/28 22:30:13;;;;;;;41.38;5.55;;;15.70;99.90;;;;;;5090900;28;20043;-65
2023/08/28 22:33:17;;;;;;;36.78;5.32;;;15.80;99.90;;;;;;5091084;28;20059;-65
2023/08/28 22:36:21;;;;;;;38.75;6.22;;;15.80;99.90;;;;;;5091650;28;20106;-65
2023/08/28 22:39:29;;;;;;;39.78;5.53;;;15.80;99.90;;;;;;5091667;28;20039;-66
2023/08/28 22:42:33;;;;;;;38.97;6.13;;;15.70;99.90;;;;;;5090842;28;20042;-65
2023/08/28 22:45:37;;;;;;;34.70;6.07;;;15.70;99.90;;;;;;5091210;28;20063;-65
2023/08/28 22:48:44;;;;;;;43.80;7.38;;;15.70;99.90;;;;;;5091423;28;20046;-65
2023/08/28 22:51:48;;;;;;;37.28;5.72;;;15.70;99.90;;;;;;5090541;28;20522;-65
2023/08/28 22:54:52;;;;;;;27.85;6.38;;;15.70;99.90;;;;;;5091014;28;20047;-66
2023/08/28 22:57:56;;;;;;;41.75;5.32;;;15.70;99.90;;;;;;5078257;28;20035;-66
2023/08/28 23:01:00;;;;;;;50.13;7.35;;;15.80;99.90;;;;;;5091328;28;20043;-66
2023/08/28 23:04:05;;;;;;;44.58;5.53;;;15.80;99.90;;;;;;5091195;28;20051;-65
2023/08/28 23:07:09;;;;;;;36.13;6.13;;;15.80;99.90;;;;;;5090861;28;20043;-65
2023/08/28 23:10:13;;;;;;;31.45;5.45;;;15.90;99.90;;;;;;5091358;28;20047;-66
2023/08/28 23:13:17;;;;;;;36.65;6.07;;;16.00;99.90;;;;;;5090243;28;20494;-66
2023/08/28 23:16:21;;;;;;;44.05;8.30;;;16.00;99.90;;;;;;5090713;28;20116;-66
2023/08/28 23:19:25;;;;;;;38.80;6.70;;;16.10;99.90;;;;;;5090708;28;20056;-66
2023/08/28 23:22:30;;;;;;;34.53;5.93;;;16.20;99.90;;;;;;5090381;28;20039;-66
2023/08/28 23:25:35;;;;;;;35.38;5.07;;;16.30;99.90;;;;;;5090987;28;20051;-66
2023/08/28 23:28:40;;;;;;;33.78;5.07;;;16.40;99.90;;;;;;5077895;28;20631;-66